sensor_id;sensor_type;location;lat;lon;timestamp;P1;durP1;ratioP1;P2;durP2;ratioP2
20657;SDS011;10488;50.846;4.078;2023-07-16T00:02:04;4.43;;;2.15;;
20657;SDS011;10488;50.846;4.078;2023-07-16T00:04:30;12.35;;;2.03;;
20657;SDS011;10488;50.846;4.078;2023-07-16T00:06:57;8.23;;;1.98;;
20657;SDS011;10488;50.846;4.078;2023-07-16T00:09:24;7.07;;;2.03;;
20657;SDS011;10488;50.846;4.078;2023-07-16T00:11:49;8.68;;;2.15;;
20657;SDS011;10488;50.846;4.078;2023-07-16T00:14:15;7.05;;;2.35;;
20657;SDS011;10488;50.846;4.078;2023-07-16T00:16:41;7.50;;;1.83;;
20657;SDS011;10488;50.846;4.078;2023-07-16T00:19:06;7.00;;;1.90;;
20657;SDS011;10488;50.846;4.078;2023-07-16T00:21:32;9.40;;;2.70;;
20657;SDS011;10488;50.846;4.078;2023-07-16T00:23:58;8.85;;;2.13;;
20657;SDS011;10488;50.846;4.078;2023-07-16T00:26:24;15.00;;;3.22;;
20657;SDS011;10488;50.846;4.078;2023-07-16T00:28:50;11.77;;;2.03;;
20657;SDS011;10488;50.846;4.078;2023-07-16T00:31:15;11.55;;;2.10;;
20657;SDS011;10488;50.846;4.078;2023-07-16T00:33:41;8.00;;;2.15;;
20657;SDS011;10488;50.846;4.078;2023-07-16T00:36:06;7.43;;;2.15;;
20657;SDS011;10488;50.846;4.078;2023-07-16T00:38:32;10.52;;;2.45;;
20657;SDS011;10488;50.846;4.078;2023-07-16T00:40:58;9.35;;;2.33;;
20657;SDS011;10488;50.846;4.078;2023-07-16T00:43:23;12.38;;;2.20;;
20657;SDS011;10488;50.846;4.078;2023-07-16T00:45:49;9.02;;;2.30;;
20657;SDS011;10488;50.846;4.078;2023-07-16T00:48:15;8.98;;;2.10;;
20657;SDS011;10488;50.846;4.078;2023-07-16T00:50:41;11.88;;;2.35;;
20657;SDS011;10488;50.846;4.078;2023-07-16T00:53:07;9.93;;;2.28;;
20657;SDS011;10488;50.846;4.078;2023-07-16T00:55:37;6.65;;;2.80;;
20657;SDS011;10488;50.846;4.078;2023-07-16T00:58:07;8.63;;;2.20;;
20657;SDS011;10488;50.846;4.078;2023-07-16T01:00:33;9.30;;;2.28;;
20657;SDS011;10488;50.846;4.078;2023-07-16T01:03:04;7.75;;;2.20;;
20657;SDS011;10488;50.846;4.078;2023-07-16T01:06:15;10.80;;;2.20;;
20657;SDS011;10488;50.846;4.078;2023-07-16T01:08:42;12.77;;;2.55;;
20657;SDS011;10488;50.846;4.078;2023-07-16T01:11:11;8.77;;;2.13;;
20657;SDS011;10488;50.846;4.078;2023-07-16T01:13:37;10.23;;;2.60;;
20657;SDS011;10488;50.846;4.078;2023-07-16T01:16:04;6.25;;;2.38;;
20657;SDS011;10488;50.846;4.078;2023-07-16T01:18:30;5.38;;;1.98;;
20657;SDS011;10488;50.846;4.078;2023-07-16T01:20:56;11.10;;;2.50;;
20657;SDS011;10488;50.846;4.078;2023-07-16T01:26:08;11.70;;;2.50;;
20657;SDS011;10488;50.846;4.078;2023-07-16T01:29:04;6.38;;;2.95;;
20657;SDS011;10488;50.846;4.078;2023-07-16T01:31:48;5.97;;;2.70;;
20657;SDS011;10488;50.846;4.078;2023-07-16T01:34:16;6.60;;;3.13;;
20657;SDS011;10488;50.846;4.078;2023-07-16T01:36:42;7.43;;;3.00;;
20657;SDS011;10488;50.846;4.078;2023-07-16T01:39:09;4.93;;;2.83;;
20657;SDS011;10488;50.846;4.078;2023-07-16T01:41:35;7.90;;;2.92;;
20657;SDS011;10488;50.846;4.078;2023-07-16T01:44:00;7.72;;;3.67;;
20657;SDS011;10488;50.846;4.078;2023-07-16T01:46:26;10.75;;;3.80;;
20657;SDS011;10488;50.846;4.078;2023-07-16T01:48:52;10.20;;;3.55;;
20657;SDS011;10488;50.846;4.078;2023-07-16T01:51:18;8.10;;;3.10;;
20657;SDS011;10488;50.846;4.078;2023-07-16T01:53:45;11.77;;;3.00;;
20657;SDS011;10488;50.846;4.078;2023-07-16T01:56:10;11.07;;;3.30;;
20657;SDS011;10488;50.846;4.078;2023-07-16T01:58:36;10.32;;;3.88;;
20657;SDS011;10488;50.846;4.078;2023-07-16T02:01:02;11.00;;;3.13;;
20657;SDS011;10488;50.846;4.078;2023-07-16T02:03:28;11.52;;;3.58;;
20657;SDS011;10488;50.846;4.078;2023-07-16T02:05:53;8.30;;;2.78;;
20657;SDS011;10488;50.846;4.078;2023-07-16T02:08:19;9.02;;;3.03;;
20657;SDS011;10488;50.846;4.078;2023-07-16T02:10:46;7.25;;;2.45;;
20657;SDS011;10488;50.846;4.078;2023-07-16T02:13:12;7.85;;;2.72;;
20657;SDS011;10488;50.846;4.078;2023-07-16T02:15:38;10.07;;;3.50;;
20657;SDS011;10488;50.846;4.078;2023-07-16T02:18:04;12.85;;;2.92;;
20657;SDS011;10488;50.846;4.078;2023-07-16T02:20:30;8.10;;;2.80;;
20657;SDS011;10488;50.846;4.078;2023-07-16T02:22:55;10.98;;;3.20;;
20657;SDS011;10488;50.846;4.078;2023-07-16T02:25:21;5.32;;;2.72;;
20657;SDS011;10488;50.846;4.078;2023-07-16T02:27:47;7.82;;;3.05;;
20657;SDS011;10488;50.846;4.078;2023-07-16T02:30:14;6.63;;;2.85;;
20657;SDS011;10488;50.846;4.078;2023-07-16T02:32:40;9.73;;;3.72;;
20657;SDS011;10488;50.846;4.078;2023-07-16T02:35:06;8.43;;;3.30;;
20657;SDS011;10488;50.846;4.078;2023-07-16T02:37:32;8.82;;;3.47;;
20657;SDS011;10488;50.846;4.078;2023-07-16T02:39:58;9.20;;;3.45;;
20657;SDS011;10488;50.846;4.078;2023-07-16T02:42:24;9.35;;;3.80;;
20657;SDS011;10488;50.846;4.078;2023-07-16T02:44:49;9.60;;;4.32;;
20657;SDS011;10488;50.846;4.078;2023-07-16T02:47:15;11.25;;;3.80;;
20657;SDS011;10488;50.846;4.078;2023-07-16T02:49:40;10.55;;;3.75;;
20657;SDS011;10488;50.846;4.078;2023-07-16T02:52:06;7.18;;;4.13;;
20657;SDS011;10488;50.846;4.078;2023-07-16T02:54:32;10.32;;;4.53;;
20657;SDS011;10488;50.846;4.078;2023-07-16T02:56:58;12.15;;;4.18;;
20657;SDS011;10488;50.846;4.078;2023-07-16T02:59:24;12.45;;;4.85;;
20657;SDS011;10488;50.846;4.078;2023-07-16T03:01:50;9.63;;;4.38;;
20657;SDS011;10488;50.846;4.078;2023-07-16T03:04:16;7.93;;;4.18;;
20657;SDS011;10488;50.846;4.078;2023-07-16T03:06:42;9.20;;;4.82;;
20657;SDS011;10488;50.846;4.078;2023-07-16T03:09:07;11.48;;;4.60;;
20657;SDS011;10488;50.846;4.078;2023-07-16T03:11:33;9.93;;;5.00;;
20657;SDS011;10488;50.846;4.078;2023-07-16T03:13:58;14.93;;;5.95;;
20657;SDS011;10488;50.846;4.078;2023-07-16T03:16:24;17.50;;;5.10;;
20657;SDS011;10488;50.846;4.078;2023-07-16T03:18:50;13.27;;;5.05;;
20657;SDS011;10488;50.846;4.078;2023-07-16T03:21:15;13.38;;;4.78;;
20657;SDS011;10488;50.846;4.078;2023-07-16T03:23:41;8.77;;;4.55;;
20657;SDS011;10488;50.846;4.078;2023-07-16T03:26:07;9.43;;;4.35;;
20657;SDS011;10488;50.846;4.078;2023-07-16T03:28:32;13.20;;;5.05;;
20657;SDS011;10488;50.846;4.078;2023-07-16T03:30:58;12.68;;;4.72;;
20657;SDS011;10488;50.846;4.078;2023-07-16T03:33:24;10.75;;;4.35;;
20657;SDS011;10488;50.846;4.078;2023-07-16T03:35:50;7.35;;;4.35;;
20657;SDS011;10488;50.846;4.078;2023-07-16T03:38:16;9.45;;;4.65;;
20657;SDS011;10488;50.846;4.078;2023-07-16T03:40:48;12.48;;;4.88;;
20657;SDS011;10488;50.846;4.078;2023-07-16T03:43:15;12.88;;;4.78;;
20657;SDS011;10488;50.846;4.078;2023-07-16T03:45:41;9.65;;;4.47;;
20657;SDS011;10488;50.846;4.078;2023-07-16T03:48:07;12.20;;;6.03;;
20657;SDS011;10488;50.846;4.078;2023-07-16T03:50:33;14.15;;;5.10;;
20657;SDS011;10488;50.846;4.078;2023-07-16T03:52:59;10.40;;;4.75;;
20657;SDS011;10488;50.846;4.078;2023-07-16T03:55:25;15.85;;;5.13;;
20657;SDS011;10488;50.846;4.078;2023-07-16T03:57:51;12.38;;;5.32;;
20657;SDS011;10488;50.846;4.078;2023-07-16T04:00:17;10.73;;;5.05;;
20657;SDS011;10488;50.846;4.078;2023-07-16T04:02:42;16.55;;;5.78;;
20657;SDS011;10488;50.846;4.078;2023-07-16T04:05:08;9.70;;;4.90;;
20657;SDS011;10488;50.846;4.078;2023-07-16T04:07:34;12.43;;;4.97;;
20657;SDS011;10488;50.846;4.078;2023-07-16T04:09:59;12.13;;;4.95;;
20657;SDS011;10488;50.846;4.078;2023-07-16T04:12:25;13.55;;;5.43;;
20657;SDS011;10488;50.846;4.078;2023-07-16T04:14:55;19.27;;;6.03;;
20657;SDS011;10488;50.846;4.078;2023-07-16T04:17:22;11.18;;;5.15;;
20657;SDS011;10488;50.846;4.078;2023-07-16T04:19:47;15.77;;;4.63;;
20657;SDS011;10488;50.846;4.078;2023-07-16T04:22:13;11.40;;;5.18;;
20657;SDS011;10488;50.846;4.078;2023-07-16T04:24:39;16.33;;;6.35;;
20657;SDS011;10488;50.846;4.078;2023-07-16T04:27:04;11.60;;;5.00;;
20657;SDS011;10488;50.846;4.078;2023-07-16T04:29:30;14.45;;;5.53;;
20657;SDS011;10488;50.846;4.078;2023-07-16T04:31:56;15.82;;;6.35;;
20657;SDS011;10488;50.846;4.078;2023-07-16T04:34:21;17.65;;;5.63;;
20657;SDS011;10488;50.846;4.078;2023-07-16T04:36:47;16.05;;;5.85;;
20657;SDS011;10488;50.846;4.078;2023-07-16T04:39:13;10.88;;;5.45;;
20657;SDS011;10488;50.846;4.078;2023-07-16T04:41:38;13.85;;;5.80;;
20657;SDS011;10488;50.846;4.078;2023-07-16T04:44:04;13.93;;;5.80;;
20657;SDS011;10488;50.846;4.078;2023-07-16T04:46:30;14.45;;;5.32;;
20657;SDS011;10488;50.846;4.078;2023-07-16T04:48:56;16.92;;;6.68;;
20657;SDS011;10488;50.846;4.078;2023-07-16T04:51:22;14.18;;;5.93;;
20657;SDS011;10488;50.846;4.078;2023-07-16T04:53:48;12.50;;;5.63;;
20657;SDS011;10488;50.846;4.078;2023-07-16T04:56:14;12.30;;;6.20;;
20657;SDS011;10488;50.846;4.078;2023-07-16T04:58:40;12.00;;;5.25;;
20657;SDS011;10488;50.846;4.078;2023-07-16T05:01:07;12.60;;;5.95;;
20657;SDS011;10488;50.846;4.078;2023-07-16T05:03:33;14.32;;;6.38;;
20657;SDS011;10488;50.846;4.078;2023-07-16T05:05:59;12.27;;;6.72;;
20657;SDS011;10488;50.846;4.078;2023-07-16T05:08:25;11.38;;;5.78;;
20657;SDS011;10488;50.846;4.078;2023-07-16T05:10:51;14.93;;;6.22;;
20657;SDS011;10488;50.846;4.078;2023-07-16T05:13:16;11.15;;;6.00;;
20657;SDS011;10488;50.846;4.078;2023-07-16T05:15:45;17.40;;;6.75;;
20657;SDS011;10488;50.846;4.078;2023-07-16T05:18:12;16.00;;;6.55;;
20657;SDS011;10488;50.846;4.078;2023-07-16T05:20:38;14.98;;;6.85;;
20657;SDS011;10488;50.846;4.078;2023-07-16T05:23:03;19.75;;;6.72;;
20657;SDS011;10488;50.846;4.078;2023-07-16T05:25:29;16.52;;;6.57;;
20657;SDS011;10488;50.846;4.078;2023-07-16T05:27:55;12.15;;;6.40;;
20657;SDS011;10488;50.846;4.078;2023-07-16T05:30:21;15.77;;;6.55;;
20657;SDS011;10488;50.846;4.078;2023-07-16T05:32:47;12.00;;;6.63;;
20657;SDS011;10488;50.846;4.078;2023-07-16T05:35:12;19.60;;;7.05;;
20657;SDS011;10488;50.846;4.078;2023-07-16T05:37:38;13.23;;;7.03;;
20657;SDS011;10488;50.846;4.078;2023-07-16T05:40:04;13.93;;;6.90;;
20657;SDS011;10488;50.846;4.078;2023-07-16T05:42:30;13.52;;;6.25;;
20657;SDS011;10488;50.846;4.078;2023-07-16T05:44:56;13.20;;;7.05;;
20657;SDS011;10488;50.846;4.078;2023-07-16T05:47:22;19.33;;;6.82;;
20657;SDS011;10488;50.846;4.078;2023-07-16T05:49:47;14.73;;;6.60;;
20657;SDS011;10488;50.846;4.078;2023-07-16T05:52:13;12.80;;;6.57;;
20657;SDS011;10488;50.846;4.078;2023-07-16T05:54:38;15.05;;;5.80;;
20657;SDS011;10488;50.846;4.078;2023-07-16T05:57:04;12.75;;;5.70;;
20657;SDS011;10488;50.846;4.078;2023-07-16T05:59:30;13.95;;;5.47;;
20657;SDS011;10488;50.846;4.078;2023-07-16T06:01:59;15.70;;;6.13;;
20657;SDS011;10488;50.846;4.078;2023-07-16T06:04:25;14.77;;;5.80;;
20657;SDS011;10488;50.846;4.078;2023-07-16T06:06:51;11.02;;;5.90;;
20657;SDS011;10488;50.846;4.078;2023-07-16T06:09:16;14.05;;;6.63;;
20657;SDS011;10488;50.846;4.078;2023-07-16T06:11:42;9.35;;;5.38;;
20657;SDS011;10488;50.846;4.078;2023-07-16T06:14:10;11.68;;;5.95;;
20657;SDS011;10488;50.846;4.078;2023-07-16T06:16:36;9.75;;;5.97;;
20657;SDS011;10488;50.846;4.078;2023-07-16T06:19:02;11.95;;;6.38;;
20657;SDS011;10488;50.846;4.078;2023-07-16T06:21:28;8.68;;;5.43;;
20657;SDS011;10488;50.846;4.078;2023-07-16T06:23:53;11.07;;;5.55;;
20657;SDS011;10488;50.846;4.078;2023-07-16T06:26:19;10.10;;;5.32;;
20657;SDS011;10488;50.846;4.078;2023-07-16T06:28:44;11.77;;;5.80;;
20657;SDS011;10488;50.846;4.078;2023-07-16T06:31:14;12.00;;;5.60;;
20657;SDS011;10488;50.846;4.078;2023-07-16T06:33:40;9.18;;;5.07;;
20657;SDS011;10488;50.846;4.078;2023-07-16T06:36:05;14.02;;;6.03;;
20657;SDS011;10488;50.846;4.078;2023-07-16T06:38:31;12.68;;;6.20;;
20657;SDS011;10488;50.846;4.078;2023-07-16T06:40:57;10.20;;;5.88;;
20657;SDS011;10488;50.846;4.078;2023-07-16T06:43:22;15.63;;;6.50;;
20657;SDS011;10488;50.846;4.078;2023-07-16T06:45:49;13.93;;;6.05;;
20657;SDS011;10488;50.846;4.078;2023-07-16T06:48:16;11.43;;;5.75;;
20657;SDS011;10488;50.846;4.078;2023-07-16T06:50:42;9.25;;;5.40;;
20657;SDS011;10488;50.846;4.078;2023-07-16T06:53:07;12.60;;;5.82;;
20657;SDS011;10488;50.846;4.078;2023-07-16T06:55:33;10.18;;;5.68;;
20657;SDS011;10488;50.846;4.078;2023-07-16T06:58:00;12.77;;;5.30;;
20657;SDS011;10488;50.846;4.078;2023-07-16T07:00:25;15.85;;;6.75;;
20657;SDS011;10488;50.846;4.078;2023-07-16T07:02:51;11.38;;;5.93;;
20657;SDS011;10488;50.846;4.078;2023-07-16T07:05:17;12.85;;;5.25;;
20657;SDS011;10488;50.846;4.078;2023-07-16T07:07:42;12.43;;;5.30;;
20657;SDS011;10488;50.846;4.078;2023-07-16T07:10:10;12.68;;;5.32;;
20657;SDS011;10488;50.846;4.078;2023-07-16T07:12:38;13.15;;;5.90;;
20657;SDS011;10488;50.846;4.078;2023-07-16T07:15:07;12.48;;;5.38;;
20657;SDS011;10488;50.846;4.078;2023-07-16T07:17:33;12.77;;;6.30;;
20657;SDS011;10488;50.846;4.078;2023-07-16T07:20:00;12.20;;;5.63;;
20657;SDS011;10488;50.846;4.078;2023-07-16T07:22:26;14.45;;;5.90;;
20657;SDS011;10488;50.846;4.078;2023-07-16T07:24:51;14.77;;;5.97;;
20657;SDS011;10488;50.846;4.078;2023-07-16T07:27:17;13.40;;;6.22;;
20657;SDS011;10488;50.846;4.078;2023-07-16T07:29:43;15.38;;;5.90;;
20657;SDS011;10488;50.846;4.078;2023-07-16T07:32:09;17.38;;;6.53;;
20657;SDS011;10488;50.846;4.078;2023-07-16T07:34:34;13.25;;;5.90;;
20657;SDS011;10488;50.846;4.078;2023-07-16T07:37:00;13.95;;;6.75;;
20657;SDS011;10488;50.846;4.078;2023-07-16T07:39:26;14.80;;;6.43;;
20657;SDS011;10488;50.846;4.078;2023-07-16T07:41:51;15.30;;;6.50;;
20657;SDS011;10488;50.846;4.078;2023-07-16T07:44:17;11.15;;;5.25;;
20657;SDS011;10488;50.846;4.078;2023-07-16T07:46:42;16.42;;;6.03;;
20657;SDS011;10488;50.846;4.078;2023-07-16T07:49:08;10.48;;;5.88;;
20657;SDS011;10488;50.846;4.078;2023-07-16T07:51:34;14.10;;;6.25;;
20657;SDS011;10488;50.846;4.078;2023-07-16T07:53:59;10.07;;;4.60;;
20657;SDS011;10488;50.846;4.078;2023-07-16T07:56:25;10.68;;;5.32;;
20657;SDS011;10488;50.846;4.078;2023-07-16T07:58:51;13.63;;;5.15;;
20657;SDS011;10488;50.846;4.078;2023-07-16T08:01:17;13.70;;;5.68;;
20657;SDS011;10488;50.846;4.078;2023-07-16T08:03:42;13.63;;;5.38;;
20657;SDS011;10488;50.846;4.078;2023-07-16T08:06:08;11.20;;;5.30;;
20657;SDS011;10488;50.846;4.078;2023-07-16T08:08:36;10.23;;;5.20;;
20657;SDS011;10488;50.846;4.078;2023-07-16T08:11:01;8.80;;;4.80;;
20657;SDS011;10488;50.846;4.078;2023-07-16T08:13:27;12.02;;;5.18;;
20657;SDS011;10488;50.846;4.078;2023-07-16T08:15:53;10.50;;;4.93;;
20657;SDS011;10488;50.846;4.078;2023-07-16T08:18:18;15.68;;;5.90;;
20657;SDS011;10488;50.846;4.078;2023-07-16T08:20:44;13.85;;;5.05;;
20657;SDS011;10488;50.846;4.078;2023-07-16T08:23:11;8.68;;;4.60;;
20657;SDS011;10488;50.846;4.078;2023-07-16T08:25:37;10.90;;;4.97;;
20657;SDS011;10488;50.846;4.078;2023-07-16T08:28:03;11.95;;;4.93;;
20657;SDS011;10488;50.846;4.078;2023-07-16T08:30:29;13.48;;;4.80;;
20657;SDS011;10488;50.846;4.078;2023-07-16T08:32:54;7.40;;;4.60;;
20657;SDS011;10488;50.846;4.078;2023-07-16T08:35:20;8.05;;;4.32;;
20657;SDS011;10488;50.846;4.078;2023-07-16T08:37:46;8.63;;;4.75;;
20657;SDS011;10488;50.846;4.078;2023-07-16T08:40:12;13.52;;;4.88;;
20657;SDS011;10488;50.846;4.078;2023-07-16T08:42:38;10.50;;;4.85;;
20657;SDS011;10488;50.846;4.078;2023-07-16T08:45:09;7.45;;;4.50;;
20657;SDS011;10488;50.846;4.078;2023-07-16T08:47:36;8.40;;;5.05;;
20657;SDS011;10488;50.846;4.078;2023-07-16T08:50:02;6.63;;;4.35;;
20657;SDS011;10488;50.846;4.078;2023-07-16T08:52:28;12.45;;;4.30;;
20657;SDS011;10488;50.846;4.078;2023-07-16T08:54:54;10.55;;;4.53;;
20657;SDS011;10488;50.846;4.078;2023-07-16T08:57:20;11.25;;;4.88;;
20657;SDS011;10488;50.846;4.078;2023-07-16T08:59:47;12.70;;;5.32;;
20657;SDS011;10488;50.846;4.078;2023-07-16T09:02:15;10.55;;;5.03;;
20657;SDS011;10488;50.846;4.078;2023-07-16T09:04:43;9.63;;;4.35;;
20657;SDS011;10488;50.846;4.078;2023-07-16T09:07:09;11.30;;;4.72;;
20657;SDS011;10488;50.846;4.078;2023-07-16T09:09:34;12.38;;;4.57;;
20657;SDS011;10488;50.846;4.078;2023-07-16T09:12:01;14.05;;;5.63;;
20657;SDS011;10488;50.846;4.078;2023-07-16T09:14:27;10.10;;;4.82;;
20657;SDS011;10488;50.846;4.078;2023-07-16T09:16:53;11.02;;;5.25;;
20657;SDS011;10488;50.846;4.078;2023-07-16T09:19:19;9.95;;;4.78;;
20657;SDS011;10488;50.846;4.078;2023-07-16T09:21:46;11.80;;;5.43;;
20657;SDS011;10488;50.846;4.078;2023-07-16T09:24:13;11.35;;;4.88;;
20657;SDS011;10488;50.846;4.078;2023-07-16T09:26:39;11.00;;;5.47;;
20657;SDS011;10488;50.846;4.078;2023-07-16T09:29:12;11.48;;;5.40;;
20657;SDS011;10488;50.846;4.078;2023-07-16T09:31:37;10.55;;;5.13;;
20657;SDS011;10488;50.846;4.078;2023-07-16T09:34:03;12.75;;;5.32;;
20657;SDS011;10488;50.846;4.078;2023-07-16T09:36:29;10.98;;;5.30;;
20657;SDS011;10488;50.846;4.078;2023-07-16T09:38:54;10.63;;;5.00;;
20657;SDS011;10488;50.846;4.078;2023-07-16T09:41:22;13.73;;;5.30;;
20657;SDS011;10488;50.846;4.078;2023-07-16T09:43:48;13.43;;;5.28;;
20657;SDS011;10488;50.846;4.078;2023-07-16T09:46:14;8.70;;;4.25;;
20657;SDS011;10488;50.846;4.078;2023-07-16T09:48:39;16.05;;;4.47;;
20657;SDS011;10488;50.846;4.078;2023-07-16T09:51:05;10.57;;;4.68;;
20657;SDS011;10488;50.846;4.078;2023-07-16T09:53:39;9.75;;;3.80;;
20657;SDS011;10488;50.846;4.078;2023-07-16T09:56:07;12.95;;;5.00;;
20657;SDS011;10488;50.846;4.078;2023-07-16T09:58:37;8.05;;;4.57;;
20657;SDS011;10488;50.846;4.078;2023-07-16T10:01:03;11.88;;;4.43;;
20657;SDS011;10488;50.846;4.078;2023-07-16T10:03:30;9.75;;;4.75;;
20657;SDS011;10488;50.846;4.078;2023-07-16T10:06:05;11.35;;;5.32;;
20657;SDS011;10488;50.846;4.078;2023-07-16T10:08:33;10.57;;;4.68;;
20657;SDS011;10488;50.846;4.078;2023-07-16T10:11:00;11.43;;;5.25;;
20657;SDS011;10488;50.846;4.078;2023-07-16T10:13:26;6.75;;;4.18;;
20657;SDS011;10488;50.846;4.078;2023-07-16T10:15:55;11.95;;;4.78;;
20657;SDS011;10488;50.846;4.078;2023-07-16T10:20:52;9.25;;;5.45;;
20657;SDS011;10488;50.846;4.078;2023-07-16T10:23:18;10.38;;;6.40;;
20657;SDS011;10488;50.846;4.078;2023-07-16T10:26:00;15.00;;;4.50;;
20657;SDS011;10488;50.846;4.078;2023-07-16T10:28:30;17.92;;;4.80;;
20657;SDS011;10488;50.846;4.078;2023-07-16T10:30:59;8.35;;;4.07;;
20657;SDS011;10488;50.846;4.078;2023-07-16T10:33:25;12.70;;;4.88;;
20657;SDS011;10488;50.846;4.078;2023-07-16T10:35:51;11.43;;;4.78;;
20657;SDS011;10488;50.846;4.078;2023-07-16T10:38:16;12.27;;;4.85;;
20657;SDS011;10488;50.846;4.078;2023-07-16T10:40:45;15.07;;;5.88;;
20657;SDS011;10488;50.846;4.078;2023-07-16T10:43:11;11.38;;;5.97;;
20657;SDS011;10488;50.846;4.078;2023-07-16T10:45:37;10.45;;;5.68;;
20657;SDS011;10488;50.846;4.078;2023-07-16T10:48:04;8.63;;;4.50;;
20657;SDS011;10488;50.846;4.078;2023-07-16T10:50:33;12.10;;;4.78;;
20657;SDS011;10488;50.846;4.078;2023-07-16T10:53:00;9.68;;;4.55;;
20657;SDS011;10488;50.846;4.078;2023-07-16T10:55:26;7.72;;;4.72;;
20657;SDS011;10488;50.846;4.078;2023-07-16T10:57:53;7.85;;;4.13;;
20657;SDS011;10488;50.846;4.078;2023-07-16T11:00:21;11.02;;;4.30;;
20657;SDS011;10488;50.846;4.078;2023-07-16T11:02:48;9.77;;;4.65;;
20657;SDS011;10488;50.846;4.078;2023-07-16T11:05:15;13.23;;;4.78;;
20657;SDS011;10488;50.846;4.078;2023-07-16T11:07:45;9.15;;;4.03;;
20657;SDS011;10488;50.846;4.078;2023-07-16T11:10:12;9.40;;;4.10;;
20657;SDS011;10488;50.846;4.078;2023-07-16T11:12:41;11.45;;;4.22;;
20657;SDS011;10488;50.846;4.078;2023-07-16T11:15:07;5.57;;;3.67;;
20657;SDS011;10488;50.846;4.078;2023-07-16T11:17:33;9.88;;;4.65;;
20657;SDS011;10488;50.846;4.078;2023-07-16T11:19:59;15.07;;;6.40;;
20657;SDS011;10488;50.846;4.078;2023-07-16T11:22:26;11.70;;;5.20;;
20657;SDS011;10488;50.846;4.078;2023-07-16T11:24:52;9.02;;;7.05;;
20657;SDS011;10488;50.846;4.078;2023-07-16T11:27:27;9.10;;;3.72;;
20657;SDS011;10488;50.846;4.078;2023-07-16T11:29:57;8.70;;;4.03;;
20657;SDS011;10488;50.846;4.078;2023-07-16T11:34:56;9.55;;;3.47;;
20657;SDS011;10488;50.846;4.078;2023-07-16T11:37:27;8.85;;;3.83;;
20657;SDS011;10488;50.846;4.078;2023-07-16T11:42:23;5.78;;;3.30;;
20657;SDS011;10488;50.846;4.078;2023-07-16T11:44:57;9.40;;;3.05;;
20657;SDS011;10488;50.846;4.078;2023-07-16T11:47:23;7.68;;;3.10;;
20657;SDS011;10488;50.846;4.078;2023-07-16T11:49:49;6.45;;;3.15;;
20657;SDS011;10488;50.846;4.078;2023-07-16T11:52:19;9.95;;;3.28;;
20657;SDS011;10488;50.846;4.078;2023-07-16T11:54:46;6.63;;;3.17;;
20657;SDS011;10488;50.846;4.078;2023-07-16T11:57:12;7.78;;;3.03;;
20657;SDS011;10488;50.846;4.078;2023-07-16T11:59:38;4.43;;;2.88;;
20657;SDS011;10488;50.846;4.078;2023-07-16T12:02:03;7.10;;;3.22;;
20657;SDS011;10488;50.846;4.078;2023-07-16T12:04:29;4.88;;;3.08;;
20657;SDS011;10488;50.846;4.078;2023-07-16T12:06:55;8.57;;;3.15;;
20657;SDS011;10488;50.846;4.078;2023-07-16T12:09:21;5.10;;;2.83;;
20657;SDS011;10488;50.846;4.078;2023-07-16T12:11:46;8.90;;;3.40;;
20657;SDS011;10488;50.846;4.078;2023-07-16T12:14:12;11.43;;;2.97;;
20657;SDS011;10488;50.846;4.078;2023-07-16T12:16:38;7.97;;;3.10;;
20657;SDS011;10488;50.846;4.078;2023-07-16T12:19:05;5.97;;;2.78;;
20657;SDS011;10488;50.846;4.078;2023-07-16T12:21:32;6.30;;;2.97;;
20657;SDS011;10488;50.846;4.078;2023-07-16T12:23:58;6.43;;;2.45;;
20657;SDS011;10488;50.846;4.078;2023-07-16T12:26:23;10.57;;;2.50;;
20657;SDS011;10488;50.846;4.078;2023-07-16T12:28:49;4.70;;;2.92;;
20657;SDS011;10488;50.846;4.078;2023-07-16T12:31:15;4.80;;;2.40;;
20657;SDS011;10488;50.846;4.078;2023-07-16T12:33:42;5.78;;;2.75;;
20657;SDS011;10488;50.846;4.078;2023-07-16T12:36:08;6.03;;;2.67;;
20657;SDS011;10488;50.846;4.078;2023-07-16T12:38:33;5.22;;;2.15;;
20657;SDS011;10488;50.846;4.078;2023-07-16T12:40:59;4.72;;;2.33;;
20657;SDS011;10488;50.846;4.078;2023-07-16T12:43:25;9.07;;;3.05;;
20657;SDS011;10488;50.846;4.078;2023-07-16T12:45:50;4.53;;;1.95;;
20657;SDS011;10488;50.846;4.078;2023-07-16T12:48:16;8.80;;;3.38;;
20657;SDS011;10488;50.846;4.078;2023-07-16T12:50:41;3.88;;;2.08;;
20657;SDS011;10488;50.846;4.078;2023-07-16T12:53:07;8.32;;;3.40;;
20657;SDS011;10488;50.846;4.078;2023-07-16T12:55:33;9.43;;;5.93;;
20657;SDS011;10488;50.846;4.078;2023-07-16T12:57:59;4.88;;;2.17;;
20657;SDS011;10488;50.846;4.078;2023-07-16T13:00:25;5.38;;;3.58;;
20657;SDS011;10488;50.846;4.078;2023-07-16T13:02:50;14.32;;;9.23;;
20657;SDS011;10488;50.846;4.078;2023-07-16T13:05:16;8.65;;;4.18;;
20657;SDS011;10488;50.846;4.078;2023-07-16T13:07:42;9.50;;;5.03;;
20657;SDS011;10488;50.846;4.078;2023-07-16T13:10:07;3.92;;;1.27;;
20657;SDS011;10488;50.846;4.078;2023-07-16T13:12:34;1.48;;;0.88;;
20657;SDS011;10488;50.846;4.078;2023-07-16T13:14:59;5.38;;;2.03;;
20657;SDS011;10488;50.846;4.078;2023-07-16T13:17:25;6.53;;;1.90;;
20657;SDS011;10488;50.846;4.078;2023-07-16T13:19:51;4.82;;;1.55;;
20657;SDS011;10488;50.846;4.078;2023-07-16T13:22:16;3.30;;;0.60;;
20657;SDS011;10488;50.846;4.078;2023-07-16T13:24:42;9.80;;;1.42;;
20657;SDS011;10488;50.846;4.078;2023-07-16T13:27:09;3.15;;;1.63;;
20657;SDS011;10488;50.846;4.078;2023-07-16T13:29:44;4.07;;;2.05;;
20657;SDS011;10488;50.846;4.078;2023-07-16T13:32:09;4.32;;;1.58;;
20657;SDS011;10488;50.846;4.078;2023-07-16T13:34:35;22.70;;;2.60;;
20657;SDS011;10488;50.846;4.078;2023-07-16T13:37:01;3.15;;;0.82;;
20657;SDS011;10488;50.846;4.078;2023-07-16T13:39:26;2.20;;;0.68;;
20657;SDS011;10488;50.846;4.078;2023-07-16T13:41:52;4.45;;;0.70;;
20657;SDS011;10488;50.846;4.078;2023-07-16T13:44:18;5.68;;;1.25;;
20657;SDS011;10488;50.846;4.078;2023-07-16T13:46:43;2.05;;;1.23;;
20657;SDS011;10488;50.846;4.078;2023-07-16T13:49:09;3.47;;;1.17;;
20657;SDS011;10488;50.846;4.078;2023-07-16T13:51:35;3.13;;;1.85;;
20657;SDS011;10488;50.846;4.078;2023-07-16T13:54:00;3.65;;;1.50;;
20657;SDS011;10488;50.846;4.078;2023-07-16T13:56:26;2.85;;;1.48;;
20657;SDS011;10488;50.846;4.078;2023-07-16T13:58:51;4.75;;;1.85;;
20657;SDS011;10488;50.846;4.078;2023-07-16T14:01:19;4.25;;;1.20;;
20657;SDS011;10488;50.846;4.078;2023-07-16T14:03:44;1.90;;;0.85;;
20657;SDS011;10488;50.846;4.078;2023-07-16T14:06:10;2.80;;;0.80;;
20657;SDS011;10488;50.846;4.078;2023-07-16T14:08:36;2.80;;;1.13;;
20657;SDS011;10488;50.846;4.078;2023-07-16T14:11:02;2.65;;;1.00;;
20657;SDS011;10488;50.846;4.078;2023-07-16T14:13:28;2.17;;;1.00;;
20657;SDS011;10488;50.846;4.078;2023-07-16T14:15:54;2.75;;;1.20;;
20657;SDS011;10488;50.846;4.078;2023-07-16T14:18:19;9.63;;;1.30;;
20657;SDS011;10488;50.846;4.078;2023-07-16T14:20:45;2.72;;;0.82;;
20657;SDS011;10488;50.846;4.078;2023-07-16T14:23:11;2.85;;;1.10;;
20657;SDS011;10488;50.846;4.078;2023-07-16T14:25:37;4.93;;;1.00;;
20657;SDS011;10488;50.846;4.078;2023-07-16T14:28:02;3.70;;;1.00;;
20657;SDS011;10488;50.846;4.078;2023-07-16T14:30:28;3.53;;;0.93;;
20657;SDS011;10488;50.846;4.078;2023-07-16T14:32:54;3.25;;;1.00;;
20657;SDS011;10488;50.846;4.078;2023-07-16T14:35:20;2.63;;;1.33;;
20657;SDS011;10488;50.846;4.078;2023-07-16T14:37:47;4.32;;;1.30;;
20657;SDS011;10488;50.846;4.078;2023-07-16T14:40:12;2.85;;;1.33;;
20657;SDS011;10488;50.846;4.078;2023-07-16T14:42:38;3.47;;;1.17;;
20657;SDS011;10488;50.846;4.078;2023-07-16T14:45:05;2.97;;;1.17;;
20657;SDS011;10488;50.846;4.078;2023-07-16T14:47:32;3.72;;;1.20;;